createdAt,value
2017-04-17T00:00:48.766Z,1011.82
2017-04-17T00:01:48.740Z,1011.82
2017-04-17T00:02:48.716Z,1011.86
2017-04-17T00:03:48.692Z,1011.87
2017-04-17T00:04:48.666Z,1011.83
2017-04-17T00:05:48.643Z,1011.81
2017-04-17T00:06:48.622Z,1011.81
2017-04-17T00:07:48.595Z,1011.8
2017-04-17T00:08:48.571Z,1011.81
2017-04-17T00:09:48.547Z,1011.76
2017-04-17T00:10:48.522Z,1011.71
2017-04-17T00:11:48.500Z,1011.73
2017-04-17T00:12:48.473Z,1011.68
2017-04-17T00:13:48.452Z,1011.66
2017-04-17T00:14:48.427Z,1011.66
2017-04-17T00:15:48.402Z,1011.66
2017-04-17T00:16:48.378Z,1011.63
2017-04-17T00:17:48.356Z,1011.68
2017-04-17T00:18:48.332Z,1011.65
2017-04-17T00:19:48.305Z,1011.6
2017-04-17T00:20:48.283Z,1011.69
2017-04-17T00:21:48.260Z,1011.64
2017-04-17T00:22:48.235Z,1011.68
2017-04-17T00:23:48.264Z,1011.65
2017-04-17T00:24:48.223Z,1011.6
2017-04-17T00:25:48.163Z,1011.62
2017-04-17T00:26:48.138Z,1011.58
2017-04-17T00:27:48.142Z,1011.54
2017-04-17T00:28:48.098Z,1011.57
2017-04-17T00:29:48.066Z,1011.48
2017-04-17T00:30:48.041Z,1011.52
2017-04-17T00:31:48.014Z,1011.5
2017-04-17T00:32:48.007Z,1011.5
2017-04-17T00:33:47.976Z,1011.51
2017-04-17T00:34:47.947Z,1011.49
2017-04-17T00:35:47.923Z,1011.51
2017-04-17T00:36:47.898Z,1011.48
2017-04-17T00:37:47.875Z,1011.47
2017-04-17T00:38:47.852Z,1011.47
2017-04-17T00:39:47.825Z,1011.49
2017-04-17T00:40:47.801Z,1011.44
2017-04-17T00:41:47.776Z,1011.44
2017-04-17T00:42:47.753Z,1011.46
2017-04-17T00:43:47.729Z,1011.39
2017-04-17T00:44:47.706Z,1011.4
2017-04-17T00:45:47.682Z,1011.4
2017-04-17T00:46:47.658Z,1011.37
2017-04-17T00:47:47.635Z,1011.39
2017-04-17T00:48:47.610Z,1011.35
2017-04-17T00:49:47.587Z,1011.36
2017-04-17T00:50:47.561Z,1011.38
2017-04-17T00:51:47.537Z,1011.33
2017-04-17T00:52:47.514Z,1011.29
2017-04-17T00:53:47.487Z,1011.3
2017-04-17T00:54:47.466Z,1011.27
2017-04-17T00:55:47.443Z,1011.24
2017-04-17T00:56:47.418Z,1011.25
2017-04-17T00:57:47.395Z,1011.25
2017-04-17T00:58:47.420Z,1011.26
2017-04-17T00:59:47.344Z,1011.26
2017-04-17T01:00:47.320Z,1011.25
2017-04-17T01:01:48.097Z,1011.3
2017-04-17T01:02:47.275Z,1011.27
2017-04-17T01:03:47.250Z,1011.25
2017-04-17T01:04:47.877Z,1011.24
2017-04-17T01:05:47.199Z,1011.22
2017-04-17T01:06:47.177Z,1011.18
2017-04-17T01:07:47.154Z,1011.16
2017-04-17T01:08:47.129Z,1011.15
2017-04-17T01:09:47.108Z,1011.17
2017-04-17T01:10:47.079Z,1011.19
2017-04-17T01:11:47.056Z,1011.19
2017-04-17T01:12:47.034Z,1011.15
2017-04-17T01:13:47.011Z,1011.12
2017-04-17T01:14:46.988Z,1011.09
2017-04-17T01:15:46.962Z,1011.11
2017-04-17T01:16:46.938Z,1011.1
2017-04-17T01:17:46.914Z,1011.07
2017-04-17T01:18:46.894Z,1011.07
2017-04-17T01:19:46.866Z,1011.01
2017-04-17T01:20:46.842Z,1011.06
2017-04-17T01:21:46.817Z,1011.12
2017-04-17T01:22:46.798Z,1011.03
2017-04-17T01:23:46.779Z,1011.05
2017-04-17T01:24:46.744Z,1011.02
2017-04-17T01:25:46.721Z,1011.04
2017-04-17T01:26:46.697Z,1011.04
2017-04-17T01:27:46.674Z,1011.02
2017-04-17T01:28:46.648Z,1010.98
2017-04-17T01:29:46.630Z,1010.98
2017-04-17T01:30:46.602Z,1011
2017-04-17T01:31:46.575Z,1010.99
2017-04-17T01:32:46.554Z,1011.02
2017-04-17T01:33:46.528Z,1011.01
2017-04-17T01:34:46.507Z,1011.03
2017-04-17T01:35:46.481Z,1010.97
2017-04-17T01:36:46.457Z,1010.97
2017-04-17T01:37:46.442Z,1010.97
2017-04-17T01:38:46.411Z,1010.94
2017-04-17T01:39:46.384Z,1010.9
2017-04-17T01:40:46.360Z,1010.92
2017-04-17T01:41:46.335Z,1010.92
2017-04-17T01:42:46.314Z,1010.88
2017-04-17T01:43:46.289Z,1010.89
2017-04-17T01:44:46.271Z,1010.9
2017-04-17T01:45:46.241Z,1010.85
2017-04-17T01:46:46.216Z,1010.83
2017-04-17T01:47:46.198Z,1010.85
2017-04-17T01:48:46.169Z,1010.85
2017-04-17T01:49:46.145Z,1010.82
2017-04-17T01:50:46.124Z,1010.86
2017-04-17T01:51:46.101Z,1010.85
2017-04-17T01:52:46.074Z,1010.84
2017-04-17T01:53:46.049Z,1010.8
2017-04-17T01:54:46.025Z,1010.8
2017-04-17T01:55:46.000Z,1010.78
2017-04-17T01:56:45.975Z,1010.78
2017-04-17T01:57:46.003Z,1010.77
2017-04-17T01:58:45.928Z,1010.82
2017-04-17T01:59:45.905Z,1010.77
2017-04-17T02:00:45.881Z,1010.77
2017-04-17T02:01:45.859Z,1010.75
2017-04-17T02:02:45.833Z,1010.74
2017-04-17T02:03:45.807Z,1010.73
2017-04-17T02:04:45.785Z,1010.76
2017-04-17T02:05:45.758Z,1010.78
2017-04-17T02:06:45.737Z,1010.71
2017-04-17T02:07:45.713Z,1010.73
2017-04-17T02:08:45.689Z,1010.77
2017-04-17T02:09:45.667Z,1010.81
2017-04-17T02:10:45.639Z,1010.77
2017-04-17T02:11:45.616Z,1010.77
2017-04-17T02:12:45.589Z,1010.77
2017-04-17T02:13:45.571Z,1010.79
2017-04-17T02:14:45.545Z,1010.76
2017-04-17T02:15:45.549Z,1010.74
2017-04-17T02:16:45.497Z,1010.73
2017-04-17T02:17:45.471Z,1010.73
2017-04-17T02:18:45.476Z,1010.74
2017-04-17T02:19:45.424Z,1010.73
2017-04-17T02:20:45.400Z,1010.75
2017-04-17T02:21:45.375Z,1010.7
2017-04-17T02:22:45.354Z,1010.71
2017-04-17T02:23:45.330Z,1010.69
2017-04-17T02:24:45.302Z,1010.68
2017-04-17T02:25:45.277Z,1010.69
2017-04-17T02:26:45.255Z,1010.68
2017-04-17T02:27:45.231Z,1010.67
2017-04-17T02:28:45.209Z,1010.65
2017-04-17T02:29:45.186Z,1010.64
2017-04-17T02:30:45.160Z,1010.64
2017-04-17T02:31:45.134Z,1010.66
2017-04-17T02:32:45.111Z,1010.64
2017-04-17T02:33:45.088Z,1010.67
2017-04-17T02:34:45.061Z,1010.67
2017-04-17T02:35:45.037Z,1010.61
2017-04-17T02:36:45.015Z,1010.55
2017-04-17T02:37:44.991Z,1010.57
2017-04-17T02:38:44.963Z,1010.53
2017-04-17T02:39:44.942Z,1010.56
2017-04-17T02:40:44.918Z,1010.55
2017-04-17T02:41:44.896Z,1010.58
2017-04-17T02:42:44.870Z,1010.55
2017-04-17T02:43:44.847Z,1010.5
2017-04-17T02:44:44.824Z,1010.52
2017-04-17T02:45:44.798Z,1010.5
2017-04-17T02:46:44.775Z,1010.47
2017-04-17T02:47:44.748Z,1010.46
2017-04-17T02:48:44.727Z,1010.45
2017-04-17T02:49:44.702Z,1010.47
2017-04-17T02:50:44.677Z,1010.46
2017-04-17T02:51:44.652Z,1010.42
2017-04-17T02:52:44.730Z,1010.4
2017-04-17T02:53:44.605Z,1010.43
2017-04-17T02:54:44.580Z,1010.4
2017-04-17T02:55:44.556Z,1010.44
2017-04-17T02:56:44.532Z,1010.37
2017-04-17T02:57:44.509Z,1010.43
2017-04-17T02:58:44.482Z,1010.37
2017-04-17T02:59:44.462Z,1010.4
2017-04-17T03:00:44.438Z,1010.36
2017-04-17T03:01:44.410Z,1010.41
2017-04-17T03:02:44.389Z,1010.41
2017-04-17T03:03:44.361Z,1010.44
2017-04-17T03:04:44.339Z,1010.47
2017-04-17T03:05:44.317Z,1010.47
2017-04-17T03:06:44.295Z,1010.42
2017-04-17T03:07:44.266Z,1010.46
2017-04-17T03:08:44.241Z,1010.43
2017-04-17T03:09:44.218Z,1010.42
2017-04-17T03:10:44.190Z,1010.46
2017-04-17T03:11:44.168Z,1010.38
2017-04-17T03:12:44.144Z,1010.43
2017-04-17T03:13:44.119Z,1010.4
2017-04-17T03:14:44.095Z,1010.38
2017-04-17T03:15:44.073Z,1010.38
2017-04-17T03:16:44.097Z,1010.42
2017-04-17T03:17:44.024Z,1010.4
2017-04-17T03:18:43.998Z,1010.41
2017-04-17T03:19:43.973Z,1010.41
2017-04-17T03:20:43.950Z,1010.43
2017-04-17T03:21:43.923Z,1010.44
2017-04-17T03:22:43.902Z,1010.37
2017-04-17T03:23:43.876Z,1010.36
2017-04-17T03:24:44.056Z,1010.35
2017-04-17T03:25:43.827Z,1010.38
2017-04-17T03:26:43.803Z,1010.37
2017-04-17T03:27:43.783Z,1010.34
2017-04-17T03:28:44.005Z,1010.38
2017-04-17T03:29:43.728Z,1010.33
2017-04-17T03:30:43.707Z,1010.3
2017-04-17T03:31:43.683Z,1010.29
2017-04-17T03:32:43.658Z,1010.26
2017-04-17T03:33:44.582Z,1010.26
2017-04-17T03:34:43.609Z,1010.28
2017-04-17T03:35:43.583Z,1010.25
2017-04-17T03:36:43.559Z,1010.27
2017-04-17T03:37:43.535Z,1010.28
2017-04-17T03:38:43.512Z,1010.21
2017-04-17T03:39:43.488Z,1010.24
2017-04-17T03:40:43.462Z,1010.22
2017-04-17T03:41:43.436Z,1010.24
2017-04-17T03:42:43.414Z,1010.2
2017-04-17T03:43:43.391Z,1010.16
2017-04-17T03:44:43.368Z,1010.2
2017-04-17T03:45:43.392Z,1010.19
2017-04-17T03:46:43.315Z,1010.21
2017-04-17T03:47:43.298Z,1010.17
2017-04-17T03:48:43.296Z,1010.2
2017-04-17T03:49:43.249Z,1010.2
2017-04-17T03:50:43.219Z,1010.23
2017-04-17T03:51:43.192Z,1010.23
2017-04-17T03:52:43.425Z,1010.24
2017-04-17T03:53:43.142Z,1010.28
2017-04-17T03:54:43.170Z,1010.29
2017-04-17T03:55:43.097Z,1010.26
2017-04-17T03:56:43.070Z,1010.26
2017-04-17T03:57:43.047Z,1010.22
2017-04-17T03:58:43.023Z,1010.23
2017-04-17T03:59:42.999Z,1010.23
2017-04-17T04:00:42.973Z,1010.2
2017-04-17T04:01:42.950Z,1010.19
2017-04-17T04:02:42.922Z,1010.21
2017-04-17T04:03:42.898Z,1010.21
2017-04-17T04:04:42.882Z,1010.19
2017-04-17T04:05:42.854Z,1010.23
2017-04-17T04:06:42.825Z,1010.2
2017-04-17T04:07:42.803Z,1010.22
2017-04-17T04:08:42.779Z,1010.21
2017-04-17T04:09:42.759Z,1010.25
2017-04-17T04:10:42.729Z,1010.22
2017-04-17T04:11:42.757Z,1010.25
2017-04-17T04:12:42.679Z,1010.24
2017-04-17T04:13:42.656Z,1010.24
2017-04-17T04:14:42.631Z,1010.21
2017-04-17T04:15:42.607Z,1010.22
2017-04-17T04:16:42.582Z,1010.14
2017-04-17T04:17:42.559Z,1010.12
2017-04-17T04:18:42.536Z,1010.14
2017-04-17T04:19:42.510Z,1010.1
2017-04-17T04:20:42.488Z,1010.16
2017-04-17T04:21:42.474Z,1010.16
2017-04-17T04:22:42.441Z,1010.17
2017-04-17T04:23:42.411Z,1010.18
2017-04-17T04:24:42.387Z,1010.13
2017-04-17T04:25:42.364Z,1010.16
2017-04-17T04:26:42.341Z,1010.13
2017-04-17T04:27:42.317Z,1010.11
2017-04-17T04:28:42.289Z,1010.09
2017-04-17T04:29:42.264Z,1010.1
2017-04-17T04:30:42.241Z,1010.03
2017-04-17T04:31:42.216Z,1010.05
2017-04-17T04:32:42.195Z,1010.08
2017-04-17T04:33:42.169Z,1010.07
2017-04-17T04:34:42.141Z,1010.08
2017-04-17T04:35:42.118Z,1010.03
2017-04-17T04:36:42.094Z,1010.04
2017-04-17T04:37:42.070Z,1010.08
2017-04-17T04:38:42.046Z,1010.01
2017-04-17T04:39:42.022Z,1010.01
2017-04-17T04:40:41.995Z,1010.04
2017-04-17T04:41:41.971Z,1010.01
2017-04-17T04:42:41.943Z,1009.99
2017-04-17T04:43:41.922Z,1010.04
2017-04-17T04:44:41.949Z,1010.01
2017-04-17T04:45:41.875Z,1009.98
2017-04-17T04:46:41.847Z,1010
2017-04-17T04:47:41.824Z,1010
2017-04-17T04:48:41.799Z,1009.97
2017-04-17T04:49:41.774Z,1009.97
2017-04-17T04:50:41.751Z,1010
2017-04-17T04:51:41.725Z,1009.96
2017-04-17T04:52:41.700Z,1009.98
2017-04-17T04:53:41.680Z,1009.96
2017-04-17T04:54:41.650Z,1009.97
2017-04-17T04:55:41.700Z,1010.01
2017-04-17T04:56:41.606Z,1009.94
2017-04-17T04:57:41.580Z,1009.96
2017-04-17T04:58:41.557Z,1009.96
2017-04-17T04:59:41.530Z,1009.95
2017-04-17T05:00:41.507Z,1009.93
2017-04-17T05:01:41.479Z,1009.9
2017-04-17T05:02:41.459Z,1009.93
2017-04-17T05:03:41.437Z,1009.97
2017-04-17T05:04:41.410Z,1009.96
2017-04-17T05:05:41.390Z,1009.95
2017-04-17T05:06:41.361Z,1009.93
2017-04-17T05:07:41.335Z,1009.96
2017-04-17T05:08:41.310Z,1009.92
2017-04-17T05:09:41.288Z,1009.92
2017-04-17T05:10:41.265Z,1009.91
2017-04-17T05:11:41.240Z,1009.92
2017-04-17T05:12:41.214Z,1009.91
2017-04-17T05:13:41.191Z,1009.93
2017-04-17T05:14:41.166Z,1009.89
2017-04-17T05:15:41.142Z,1009.94
2017-04-17T05:16:41.121Z,1010
2017-04-17T05:17:41.093Z,1010.01
2017-04-17T05:18:41.069Z,1010.02
2017-04-17T05:19:41.092Z,1010.02
2017-04-17T05:20:41.021Z,1010.04
2017-04-17T05:21:40.997Z,1010
2017-04-17T05:22:40.972Z,1010.05
2017-04-17T05:23:40.950Z,1010
2017-04-17T05:24:40.924Z,1010.02
2017-04-17T05:25:40.903Z,1010.01
2017-04-17T05:26:40.879Z,1010.06
2017-04-17T05:27:40.853Z,1010.05
2017-04-17T05:28:40.829Z,1010.07
2017-04-17T05:29:40.806Z,1010.03
2017-04-17T05:30:40.784Z,1010.18
2017-04-17T05:31:40.755Z,1010.07
2017-04-17T05:32:40.734Z,1010.1
2017-04-17T05:33:40.707Z,1010.08
2017-04-17T05:34:40.681Z,1010.03
2017-04-17T05:35:40.659Z,1010.05
2017-04-17T05:36:40.639Z,1010.03
2017-04-17T05:37:40.614Z,1010.08
2017-04-17T05:38:40.589Z,1010.05
2017-04-17T05:39:40.566Z,1010.08
2017-04-17T05:40:40.538Z,1010.06
2017-04-17T05:41:40.563Z,1010.1
2017-04-17T05:42:40.496Z,1010.06
2017-04-17T05:43:40.467Z,1010.08
2017-04-17T05:44:40.443Z,1010.05
2017-04-17T05:45:40.418Z,1010.12
2017-04-17T05:46:40.396Z,1010.04
2017-04-17T05:47:40.376Z,1010.06
2017-04-17T05:48:40.348Z,1010.06
2017-04-17T05:49:40.325Z,1010.09
2017-04-17T05:50:40.300Z,1010.1
2017-04-17T05:51:40.277Z,1010.12
2017-04-17T05:52:40.252Z,1010.09
2017-04-17T05:53:40.229Z,1010.13
2017-04-17T05:54:40.205Z,1010.17
2017-04-17T05:55:40.230Z,1010.1
2017-04-17T05:56:40.166Z,1010.13
2017-04-17T05:57:40.133Z,1010.13
2017-04-17T05:58:40.107Z,1010.17
2017-04-17T05:59:40.083Z,1010.12
2017-04-17T06:00:40.064Z,1010.14
2017-04-17T06:01:40.036Z,1010.18
2017-04-17T06:02:40.015Z,1010.17
2017-04-17T06:03:39.986Z,1010.14
2017-04-17T06:04:39.963Z,1010.11
2017-04-17T06:05:39.939Z,1010.15
2017-04-17T06:06:39.914Z,1010.16
2017-04-17T06:07:39.892Z,1010.12
2017-04-17T06:08:39.867Z,1010.12
2017-04-17T06:09:39.843Z,1010.11
2017-04-17T06:10:39.820Z,1010.17
2017-04-17T06:11:39.794Z,1010.14
2017-04-17T06:12:39.772Z,1010.18
2017-04-17T06:13:39.746Z,1010.14
2017-04-17T06:14:39.721Z,1010.16
2017-04-17T06:15:39.699Z,1010.17
2017-04-17T06:16:39.671Z,1010.18
2017-04-17T06:17:39.651Z,1010.15
2017-04-17T06:18:39.630Z,1010.18
2017-04-17T06:19:39.605Z,1010.16
2017-04-17T06:20:39.583Z,1010.18
2017-04-17T06:21:39.556Z,1010.14
2017-04-17T06:22:39.529Z,1010.18
2017-04-17T06:23:39.506Z,1010.19
2017-04-17T06:24:39.483Z,1010.23
2017-04-17T06:25:39.463Z,1010.16
2017-04-17T06:26:39.436Z,1010.18
2017-04-17T06:27:39.413Z,1010.18
2017-04-17T06:28:39.386Z,1010.17
2017-04-17T06:29:39.365Z,1010.21
2017-04-17T06:30:39.341Z,1010.23
2017-04-17T06:31:39.319Z,1010.19
2017-04-17T06:32:39.297Z,1010.23
2017-04-17T06:33:39.269Z,1010.2
2017-04-17T06:34:39.246Z,1010.25
2017-04-17T06:35:39.223Z,1010.22
2017-04-17T06:36:39.201Z,1010.2
2017-04-17T06:37:39.173Z,1010.2
2017-04-17T06:38:39.149Z,1010.2
2017-04-17T06:39:39.126Z,1010.27
2017-04-17T06:40:39.106Z,1010.16
2017-04-17T06:41:39.078Z,1010.19
2017-04-17T06:42:39.060Z,1010.23
2017-04-17T06:43:39.030Z,1010.21
2017-04-17T06:44:39.007Z,1010.21
2017-04-17T06:45:38.983Z,1010.2
2017-04-17T06:46:38.960Z,1010.22
2017-04-17T06:47:38.935Z,1010.22
2017-04-17T06:48:38.913Z,1010.22
2017-04-17T06:49:38.889Z,1010.19
2017-04-17T06:50:38.865Z,1010.2
2017-04-17T06:51:38.849Z,1010.25
2017-04-17T06:52:38.820Z,1010.22
2017-04-17T06:53:38.799Z,1010.23
2017-04-17T06:54:38.773Z,1010.18
2017-04-17T06:55:38.752Z,1010.18
2017-04-17T06:56:38.727Z,1010.22
2017-04-17T06:57:38.707Z,1010.3
2017-04-17T06:58:38.695Z,1010.24
2017-04-17T06:59:38.662Z,1010.23
2017-04-17T07:00:38.640Z,1010.25
2017-04-17T07:01:38.614Z,1010.23
2017-04-17T07:02:38.595Z,1010.24
2017-04-17T07:03:38.571Z,1010.25
2017-04-17T07:04:38.551Z,1010.25
2017-04-17T07:05:38.532Z,1010.26
2017-04-17T07:06:38.508Z,1010.26
2017-04-17T07:07:38.487Z,1010.27
2017-04-17T07:08:38.461Z,1010.29
2017-04-17T07:09:39.438Z,1010.27
2017-04-17T07:10:38.419Z,1010.32
2017-04-17T07:11:38.396Z,1010.23
2017-04-17T07:12:38.373Z,1010.28
2017-04-17T07:13:38.400Z,1010.24
2017-04-17T07:14:38.329Z,1010.25
2017-04-17T07:15:38.305Z,1010.23
2017-04-17T07:16:38.282Z,1010.24
2017-04-17T07:17:38.261Z,1010.27
2017-04-17T07:18:38.238Z,1010.25
2017-04-17T07:19:38.212Z,1010.32
2017-04-17T07:20:38.191Z,1010.3
2017-04-17T07:21:38.167Z,1010.28
2017-04-17T07:22:38.146Z,1010.27
2017-04-17T07:23:38.121Z,1010.33
2017-04-17T07:24:38.099Z,1010.28
2017-04-17T07:25:38.075Z,1010.28
2017-04-17T07:26:38.055Z,1010.28
2017-04-17T07:27:38.035Z,1010.32
2017-04-17T07:28:38.011Z,1010.28
2017-04-17T07:29:38.286Z,1010.31
2017-04-17T07:30:37.964Z,1010.36
2017-04-17T07:31:37.939Z,1010.38
2017-04-17T07:32:37.916Z,1010.34
2017-04-17T07:33:37.901Z,1010.39
2017-04-17T07:34:37.871Z,1010.3
2017-04-17T07:35:37.849Z,1010.26
2017-04-17T07:36:37.829Z,1010.34
2017-04-17T07:37:37.806Z,1010.34
2017-04-17T07:38:37.780Z,1010.34
2017-04-17T07:39:37.761Z,1010.32
2017-04-17T07:40:37.738Z,1010.25
2017-04-17T07:41:37.717Z,1010.26
2017-04-17T07:42:37.699Z,1010.25
2017-04-17T07:43:37.680Z,1010.27
2017-04-17T07:44:37.655Z,1010.24
2017-04-17T07:45:37.634Z,1010.32
2017-04-17T07:46:37.613Z,1010.33
2017-04-17T07:47:37.592Z,1010.31
2017-04-17T07:48:37.569Z,1010.3
2017-04-17T07:49:37.556Z,1010.35
2017-04-17T07:50:37.534Z,1010.35
2017-04-17T07:51:37.508Z,1010.32
2017-04-17T07:52:37.485Z,1010.35
2017-04-17T07:53:37.464Z,1010.4
2017-04-17T07:54:37.442Z,1010.39
2017-04-17T07:55:37.422Z,1010.35
2017-04-17T07:56:37.400Z,1010.33
2017-04-17T07:57:37.378Z,1010.37
2017-04-17T07:58:37.357Z,1010.35
2017-04-17T07:59:37.334Z,1010.4
2017-04-17T08:00:37.364Z,1010.37
2017-04-17T08:01:37.291Z,1010.4
2017-04-17T08:02:37.266Z,1010.44
2017-04-17T08:03:37.245Z,1010.54
2017-04-17T08:04:37.223Z,1010.52
2017-04-17T08:05:37.206Z,1010.52
2017-04-17T08:06:37.180Z,1010.53
2017-04-17T08:07:37.157Z,1010.55
2017-04-17T08:08:37.138Z,1010.55
2017-04-17T08:09:37.115Z,1010.54
2017-04-17T08:10:37.093Z,1010.57
2017-04-17T08:11:37.106Z,1010.56
2017-04-17T08:12:37.054Z,1010.58
2017-04-17T08:13:37.027Z,1010.52
2017-04-17T08:14:37.005Z,1010.54
2017-04-17T08:15:37.032Z,1010.52
2017-04-17T08:16:36.963Z,1010.6
2017-04-17T08:17:36.938Z,1010.62
2017-04-17T08:18:36.916Z,1010.63
2017-04-17T08:19:36.899Z,1010.6
2017-04-17T08:20:36.872Z,1010.64
2017-04-17T08:21:36.850Z,1010.62
2017-04-17T08:22:36.831Z,1010.67
2017-04-17T08:23:37.161Z,1010.57
2017-04-17T08:24:36.791Z,1010.59
2017-04-17T08:25:36.768Z,1010.61
2017-04-17T08:26:36.754Z,1010.62
2017-04-17T08:27:36.732Z,1010.67
2017-04-17T08:28:36.716Z,1010.65
2017-04-17T08:29:36.694Z,1010.67
2017-04-17T08:30:36.676Z,1010.67
2017-04-17T08:31:36.660Z,1010.6
2017-04-17T08:32:36.641Z,1010.65
2017-04-17T08:33:36.626Z,1010.62
2017-04-17T08:34:36.610Z,1010.65
2017-04-17T08:35:36.599Z,1010.62
2017-04-17T08:36:36.577Z,1010.59
2017-04-17T08:37:36.567Z,1010.61
2017-04-17T08:38:36.548Z,1010.65
2017-04-17T08:39:36.530Z,1010.62
2017-04-17T08:40:36.513Z,1010.63
2017-04-17T08:41:36.495Z,1010.65
2017-04-17T08:42:36.479Z,1010.7
2017-04-17T08:43:36.460Z,1010.73
2017-04-17T08:44:36.443Z,1010.76
2017-04-17T08:45:36.425Z,1010.71
2017-04-17T08:46:36.406Z,1010.8
2017-04-17T08:47:36.397Z,1010.8
2017-04-17T08:48:36.366Z,1010.79
2017-04-17T08:49:36.349Z,1010.66
2017-04-17T08:50:36.329Z,1010.76
2017-04-17T08:51:36.319Z,1010.71
2017-04-17T08:52:36.292Z,1010.71
2017-04-17T08:53:36.274Z,1010.78
2017-04-17T08:54:36.255Z,1010.75
2017-04-17T08:55:36.232Z,1010.78
2017-04-17T08:56:36.219Z,1010.76
2017-04-17T08:57:36.207Z,1010.78
2017-04-17T08:58:36.185Z,1010.75
2017-04-17T08:59:36.185Z,1010.76
2017-04-17T09:00:36.152Z,1010.8
2017-04-17T09:01:36.137Z,1010.78
2017-04-17T09:02:36.121Z,1010.86
2017-04-17T09:03:36.120Z,1010.78
2017-04-17T09:04:36.099Z,1010.81
2017-04-17T09:05:36.070Z,1010.8
2017-04-17T09:06:36.055Z,1010.75
2017-04-17T09:07:36.049Z,1010.81
2017-04-17T09:08:36.026Z,1010.86
2017-04-17T09:09:36.004Z,1010.84
2017-04-17T09:10:35.986Z,1010.9
2017-04-17T09:11:35.969Z,1010.89
2017-04-17T09:12:35.947Z,1010.93
2017-04-17T09:13:35.933Z,1010.92
2017-04-17T09:14:35.916Z,1010.91
2017-04-17T09:15:35.893Z,1010.96
2017-04-17T09:16:35.873Z,1010.94
2017-04-17T09:17:35.854Z,1010.91
2017-04-17T09:18:35.835Z,1010.94
2017-04-17T09:19:35.818Z,1010.9
2017-04-17T09:20:35.796Z,1010.85
2017-04-17T09:21:35.777Z,1010.89
2017-04-17T09:22:35.758Z,1010.88
2017-04-17T09:23:35.738Z,1010.84
2017-04-17T09:24:35.719Z,1010.84
2017-04-17T09:25:35.703Z,1010.84
2017-04-17T09:26:35.685Z,1010.82
2017-04-17T09:27:35.668Z,1010.78
2017-04-17T09:28:35.649Z,1010.78
2017-04-17T09:29:35.632Z,1010.77
2017-04-17T09:30:35.614Z,1010.8
2017-04-17T09:31:35.597Z,1010.78
2017-04-17T09:32:35.593Z,1010.75
2017-04-17T09:33:36.865Z,1010.8
2017-04-17T09:34:35.548Z,1010.83
2017-04-17T09:35:35.586Z,1010.84
2017-04-17T09:36:35.517Z,1010.81
2017-04-17T09:37:35.498Z,1010.8
2017-04-17T09:38:35.487Z,1010.8
2017-04-17T09:39:35.469Z,1010.76
2017-04-17T09:40:35.454Z,1010.75
2017-04-17T09:41:35.437Z,1010.78
2017-04-17T09:42:35.420Z,1010.86
2017-04-17T09:43:35.408Z,1010.85
2017-04-17T09:44:35.391Z,1010.83
2017-04-17T09:45:35.373Z,1010.81
2017-04-17T09:46:35.356Z,1010.88
2017-04-17T09:47:35.338Z,1010.86
2017-04-17T09:48:35.370Z,1010.87
2017-04-17T09:49:35.301Z,1010.89
2017-04-17T09:50:35.289Z,1010.89
2017-04-17T09:51:35.319Z,1011
2017-04-17T09:52:35.247Z,1010.93
2017-04-17T09:53:35.227Z,1010.87
2017-04-17T09:54:35.208Z,1010.91
2017-04-17T09:55:35.188Z,1010.94
2017-04-17T09:56:35.169Z,1010.84
2017-04-17T09:57:35.150Z,1010.9
2017-04-17T09:58:35.131Z,1010.96
2017-04-17T09:59:35.108Z,1011.05
2017-04-17T10:00:35.083Z,1011
2017-04-17T10:01:35.069Z,1011.08
2017-04-17T10:02:35.048Z,1011.05
2017-04-17T10:03:35.026Z,1011.01
2017-04-17T10:04:35.007Z,1011.02
2017-04-17T10:05:34.995Z,1011
2017-04-17T10:06:34.966Z,1010.96
2017-04-17T10:07:34.946Z,1011.04
2017-04-17T10:08:34.926Z,1011.07
2017-04-17T10:09:34.905Z,1011.06
2017-04-17T10:10:34.886Z,1011.06
2017-04-17T10:11:34.869Z,1011.04
2017-04-17T10:12:34.845Z,1011.06
2017-04-17T10:13:34.825Z,1011.07
2017-04-17T10:14:34.809Z,1011.07
2017-04-17T10:15:34.787Z,1010.99
2017-04-17T10:16:34.772Z,1011.07
2017-04-17T10:17:34.756Z,1010.99
2017-04-17T10:18:34.736Z,1011.04
2017-04-17T10:19:34.714Z,1011.05
2017-04-17T10:20:34.697Z,1011.07
2017-04-17T10:21:34.680Z,1011.01
2017-04-17T10:22:34.664Z,1011
2017-04-17T10:23:34.648Z,1010.92
2017-04-17T10:24:34.630Z,1011
2017-04-17T10:25:34.611Z,1010.95
2017-04-17T10:26:34.597Z,1010.9
2017-04-17T10:27:34.580Z,1010.94
2017-04-17T10:28:34.568Z,1010.88
2017-04-17T10:29:34.548Z,1010.9
2017-04-17T10:30:34.531Z,1010.92
2017-04-17T10:31:34.515Z,1010.9
2017-04-17T10:32:34.499Z,1010.94
2017-04-17T10:33:34.480Z,1010.94
2017-04-17T10:34:34.461Z,1010.89
2017-04-17T10:35:34.445Z,1010.85
2017-04-17T10:36:34.428Z,1010.86
2017-04-17T10:37:34.408Z,1010.85
2017-04-17T10:38:34.390Z,1010.86
2017-04-17T10:39:34.371Z,1010.79
2017-04-17T10:40:34.350Z,1010.84
2017-04-17T10:41:34.332Z,1010.82
2017-04-17T10:42:34.313Z,1010.81
2017-04-17T10:43:34.292Z,1010.78
2017-04-17T10:44:34.271Z,1010.78
2017-04-17T10:45:34.252Z,1010.75
2017-04-17T10:46:34.236Z,1010.7
2017-04-17T10:47:34.211Z,1010.72
2017-04-17T10:48:34.188Z,1010.71
2017-04-17T10:49:34.170Z,1010.71
2017-04-17T10:50:34.150Z,1010.72
2017-04-17T10:51:34.126Z,1010.65
2017-04-17T10:52:34.109Z,1010.68
2017-04-17T10:53:34.092Z,1010.64
2017-04-17T10:54:34.069Z,1010.65
2017-04-17T10:55:34.050Z,1010.63
2017-04-17T10:56:34.027Z,1010.69
2017-04-17T10:57:34.006Z,1010.74
2017-04-17T10:58:33.984Z,1010.73
2017-04-17T10:59:33.966Z,1010.77
2017-04-17T11:00:33.941Z,1010.79
2017-04-17T11:01:33.920Z,1010.75
2017-04-17T11:02:33.902Z,1010.72
2017-04-17T11:03:33.884Z,1010.78
2017-04-17T11:04:33.858Z,1010.75
2017-04-17T11:05:33.839Z,1010.74
2017-04-17T11:06:33.821Z,1010.72
2017-04-17T11:07:33.796Z,1010.73
2017-04-17T11:08:33.773Z,1010.75
2017-04-17T11:09:33.755Z,1010.71
2017-04-17T11:10:33.783Z,1010.75
2017-04-17T11:11:33.711Z,1010.73
2017-04-17T11:12:33.691Z,1010.73
2017-04-17T11:13:33.668Z,1010.76
2017-04-17T11:14:33.651Z,1010.72
2017-04-17T11:15:33.631Z,1010.8
2017-04-17T11:16:33.607Z,1010.73
2017-04-17T11:17:33.613Z,1010.77
2017-04-17T11:18:33.564Z,1010.71
2017-04-17T11:19:33.544Z,1010.71
2017-04-17T11:20:33.522Z,1010.67
2017-04-17T11:21:33.501Z,1010.73
2017-04-17T11:22:33.484Z,1010.73
2017-04-17T11:23:33.461Z,1010.66
2017-04-17T11:24:33.437Z,1010.75
2017-04-17T11:25:33.417Z,1010.73
2017-04-17T11:26:33.398Z,1010.74
2017-04-17T11:27:33.376Z,1010.82
2017-04-17T11:28:33.354Z,1010.76
2017-04-17T11:29:33.333Z,1010.74
2017-04-17T11:30:33.313Z,1010.82
2017-04-17T11:31:33.292Z,1010.76
2017-04-17T11:32:33.270Z,1010.73
2017-04-17T11:33:33.249Z,1010.72
2017-04-17T11:34:33.227Z,1010.7
2017-04-17T11:35:33.206Z,1010.67
2017-04-17T11:36:33.235Z,1010.64
2017-04-17T11:37:33.166Z,1010.66
2017-04-17T11:38:33.193Z,1010.61
2017-04-17T11:39:33.122Z,1010.63
2017-04-17T11:40:33.101Z,1010.68
2017-04-17T11:41:33.080Z,1010.68
2017-04-17T11:42:33.061Z,1010.75
2017-04-17T11:43:33.037Z,1010.71
2017-04-17T11:44:33.018Z,1010.78
2017-04-17T11:45:32.994Z,1010.8
2017-04-17T11:46:32.975Z,1010.81
2017-04-17T11:47:32.952Z,1010.75
2017-04-17T11:48:32.933Z,1010.86
2017-04-17T11:49:32.916Z,1010.82
2017-04-17T11:50:32.894Z,1010.81
2017-04-17T11:51:32.867Z,1010.83
2017-04-17T11:52:32.846Z,1010.87
2017-04-17T11:53:32.831Z,1010.92
2017-04-17T11:54:32.805Z,1010.94
2017-04-17T11:55:32.785Z,1010.95
2017-04-17T11:56:32.765Z,1010.91
2017-04-17T11:57:32.742Z,1010.96
2017-04-17T11:58:32.721Z,1010.97
2017-04-17T11:59:32.705Z,1010.99
2017-04-17T12:00:32.680Z,1010.97
2017-04-17T12:01:32.655Z,1011.13
2017-04-17T12:02:32.634Z,1011.2
2017-04-17T12:03:32.614Z,1011.15
2017-04-17T12:04:32.596Z,1011.24
2017-04-17T12:05:32.572Z,1011.22
2017-04-17T12:06:32.549Z,1011.23
2017-04-17T12:07:32.527Z,1011.26
2017-04-17T12:08:32.504Z,1011.3
2017-04-17T12:09:32.484Z,1011.27